sensor_id;sensor_type;location;lat;lon;timestamp;P1;durP1;ratioP1;P2;durP2;ratioP2
52112;SDS011;38109;49.488;31.988;2022-07-23T01:44:52;2.30;;;2.10;;
52112;SDS011;38109;49.488;31.988;2022-07-23T02:01:29;2.50;;;2.30;;
52112;SDS011;38109;49.488;31.988;2022-07-23T02:04:58;2.95;;;2.45;;
52112;SDS011;38109;49.488;31.988;2022-07-23T05:42:43;4.75;;;2.75;;
52112;SDS011;38109;49.488;31.988;2022-07-23T05:45:08;2.60;;;2.40;;
52112;SDS011;38109;49.488;31.988;2022-07-23T05:47:45;3.38;;;3.10;;
52112;SDS011;38109;49.488;31.988;2022-07-23T05:50:14;3.10;;;2.80;;
52112;SDS011;38109;49.488;31.988;2022-07-23T05:52:42;4.55;;;2.80;;
52112;SDS011;38109;49.488;31.988;2022-07-23T05:55:09;2.78;;;2.58;;
52112;SDS011;38109;49.488;31.988;2022-07-23T05:57:37;3.20;;;2.90;;
52112;SDS011;38109;49.488;31.988;2022-07-23T06:00:03;4.07;;;2.70;;
52112;SDS011;38109;49.488;31.988;2022-07-23T06:02:30;4.13;;;2.97;;
52112;SDS011;38109;49.488;31.988;2022-07-23T06:04:55;2.80;;;2.60;;
52112;SDS011;38109;49.488;31.988;2022-07-23T06:07:21;3.08;;;2.70;;
52112;SDS011;38109;49.488;31.988;2022-07-23T06:09:47;3.25;;;2.70;;
52112;SDS011;38109;49.488;31.988;2022-07-23T06:12:34;2.78;;;2.38;;
52112;SDS011;38109;49.488;31.988;2022-07-23T06:15:00;2.67;;;2.33;;
52112;SDS011;38109;49.488;31.988;2022-07-23T06:17:26;2.60;;;2.40;;
52112;SDS011;38109;49.488;31.988;2022-07-23T06:19:54;2.50;;;2.30;;
52112;SDS011;38109;49.488;31.988;2022-07-23T06:22:20;2.58;;;2.20;;
52112;SDS011;38109;49.488;31.988;2022-07-23T06:24:50;2.40;;;2.20;;
52112;SDS011;38109;49.488;31.988;2022-07-23T06:27:17;2.50;;;2.30;;
52112;SDS011;38109;49.488;31.988;2022-07-23T06:29:43;2.90;;;2.60;;
52112;SDS011;38109;49.488;31.988;2022-07-23T06:32:12;2.70;;;2.50;;
52112;SDS011;38109;49.488;31.988;2022-07-23T06:34:46;2.67;;;2.17;;
52112;SDS011;38109;49.488;31.988;2022-07-23T06:37:11;2.30;;;2.10;;
52112;SDS011;38109;49.488;31.988;2022-07-23T06:54:43;2.78;;;2.38;;
52112;SDS011;38109;49.488;31.988;2022-07-23T06:57:30;2.65;;;2.10;;
52112;SDS011;38109;49.488;31.988;2022-07-23T07:00:26;3.85;;;2.28;;
52112;SDS011;38109;49.488;31.988;2022-07-23T07:02:54;2.55;;;2.35;;
52112;SDS011;38109;49.488;31.988;2022-07-23T07:05:30;2.78;;;2.58;;
52112;SDS011;38109;49.488;31.988;2022-07-23T07:07:57;2.67;;;2.30;;
52112;SDS011;38109;49.488;31.988;2022-07-23T07:10:23;2.78;;;2.30;;
52112;SDS011;38109;49.488;31.988;2022-07-23T07:12:48;2.67;;;2.40;;
52112;SDS011;38109;49.488;31.988;2022-07-23T07:15:14;2.20;;;2.10;;
52112;SDS011;38109;49.488;31.988;2022-07-23T07:17:40;2.13;;;1.88;;
52112;SDS011;38109;49.488;31.988;2022-07-23T07:20:07;2.75;;;2.03;;
52112;SDS011;38109;49.488;31.988;2022-07-23T07:22:33;2.50;;;2.30;;
52112;SDS011;38109;49.488;31.988;2022-07-23T07:24:59;4.05;;;2.03;;
52112;SDS011;38109;49.488;31.988;2022-07-23T07:27:25;2.50;;;2.30;;
52112;SDS011;38109;49.488;31.988;2022-07-23T07:29:50;2.63;;;2.20;;
52112;SDS011;38109;49.488;31.988;2022-07-23T07:32:16;4.13;;;2.35;;
52112;SDS011;38109;49.488;31.988;2022-07-23T07:34:42;2.35;;;2.15;;
52112;SDS011;38109;49.488;31.988;2022-07-23T07:37:09;2.25;;;2.13;;
52112;SDS011;38109;49.488;31.988;2022-07-23T07:39:35;2.47;;;2.28;;
52112;SDS011;38109;49.488;31.988;2022-07-23T07:42:01;4.40;;;2.38;;
52112;SDS011;38109;49.488;31.988;2022-07-23T07:44:26;3.42;;;2.50;;
52112;SDS011;38109;49.488;31.988;2022-07-23T07:46:52;3.50;;;2.75;;
52112;SDS011;38109;49.488;31.988;2022-07-23T07:49:18;2.80;;;2.50;;
52112;SDS011;38109;49.488;31.988;2022-07-23T07:55:29;2.13;;;1.95;;
52112;SDS011;38109;49.488;31.988;2022-07-23T07:58:09;2.30;;;2.10;;
52112;SDS011;38109;49.488;31.988;2022-07-23T08:00:37;3.65;;;2.13;;
52112;SDS011;38109;49.488;31.988;2022-07-23T08:03:03;2.60;;;2.40;;
52112;SDS011;38109;49.488;31.988;2022-07-23T08:05:33;3.42;;;2.28;;
52112;SDS011;38109;49.488;31.988;2022-07-23T08:08:01;2.28;;;2.08;;
52112;SDS011;38109;49.488;31.988;2022-07-23T08:10:47;1.80;;;1.70;;
52112;SDS011;38109;49.488;31.988;2022-07-23T10:01:24;1.88;;;1.73;;
52112;SDS011;38109;49.488;31.988;2022-07-23T10:03:52;2.08;;;1.50;;
52112;SDS011;38109;49.488;31.988;2022-07-23T10:06:18;1.55;;;1.45;;
52112;SDS011;38109;49.488;31.988;2022-07-23T10:08:44;1.88;;;1.63;;
52112;SDS011;38109;49.488;31.988;2022-07-23T10:11:13;1.63;;;1.52;;
52112;SDS011;38109;49.488;31.988;2022-07-23T10:13:40;2.55;;;1.70;;
52112;SDS011;38109;49.488;31.988;2022-07-23T10:16:32;1.60;;;1.50;;
52112;SDS011;38109;49.488;31.988;2022-07-23T10:18:58;1.67;;;1.58;;
52112;SDS011;38109;49.488;31.988;2022-07-23T10:21:30;2.05;;;1.67;;
52112;SDS011;38109;49.488;31.988;2022-07-23T10:24:30;1.67;;;1.58;;
52112;SDS011;38109;49.488;31.988;2022-07-23T10:35:29;2.60;;;1.90;;
52112;SDS011;38109;49.488;31.988;2022-07-23T10:38:11;2.40;;;2.20;;
52112;SDS011;38109;49.488;31.988;2022-07-23T10:40:58;1.92;;;1.80;;
52112;SDS011;38109;49.488;31.988;2022-07-23T10:43:26;1.60;;;1.50;;
52112;SDS011;38109;49.488;31.988;2022-07-23T10:45:52;1.80;;;1.70;;
52112;SDS011;38109;49.488;31.988;2022-07-23T10:48:25;2.35;;;1.95;;
52112;SDS011;38109;49.488;31.988;2022-07-23T11:30:07;1.63;;;1.52;;
52112;SDS011;38109;49.488;31.988;2022-07-23T11:33:22;2.20;;;1.65;;
52112;SDS011;38109;49.488;31.988;2022-07-23T13:09:35;1.67;;;1.40;;
52112;SDS011;38109;49.488;31.988;2022-07-23T13:15:55;2.00;;;1.80;;
52112;SDS011;38109;49.488;31.988;2022-07-23T13:19:01;4.55;;;1.88;;
52112;SDS011;38109;49.488;31.988;2022-07-23T13:21:32;2.05;;;1.60;;
52112;SDS011;38109;49.488;31.988;2022-07-23T13:24:06;1.48;;;1.38;;
52112;SDS011;38109;49.488;31.988;2022-07-23T13:26:33;1.40;;;1.27;;
52112;SDS011;38109;49.488;31.988;2022-07-23T13:32:20;1.60;;;1.50;;
52112;SDS011;38109;49.488;31.988;2022-07-23T13:35:35;1.13;;;1.13;;
52112;SDS011;38109;49.488;31.988;2022-07-23T13:45:33;2.38;;;1.73;;
52112;SDS011;38109;49.488;31.988;2022-07-23T13:48:32;3.97;;;2.00;;
52112;SDS011;38109;49.488;31.988;2022-07-23T13:54:26;1.52;;;1.42;;
52112;SDS011;38109;49.488;31.988;2022-07-23T14:07:13;2.30;;;2.00;;
52112;SDS011;38109;49.488;31.988;2022-07-23T14:13:16;2.53;;;1.90;;
52112;SDS011;38109;49.488;31.988;2022-07-23T14:22:21;1.40;;;1.30;;
52112;SDS011;38109;49.488;31.988;2022-07-23T14:24:47;3.15;;;1.50;;
52112;SDS011;38109;49.488;31.988;2022-07-23T14:27:20;1.45;;;1.35;;
52112;SDS011;38109;49.488;31.988;2022-07-23T14:29:47;1.33;;;1.20;;
52112;SDS011;38109;49.488;31.988;2022-07-23T14:32:13;2.03;;;1.52;;
52112;SDS011;38109;49.488;31.988;2022-07-23T14:34:41;1.40;;;1.30;;
52112;SDS011;38109;49.488;31.988;2022-07-23T14:37:11;2.15;;;1.48;;
52112;SDS011;38109;49.488;31.988;2022-07-23T14:39:38;2.13;;;1.30;;
52112;SDS011;38109;49.488;31.988;2022-07-23T14:42:04;1.33;;;1.27;;
52112;SDS011;38109;49.488;31.988;2022-07-23T14:44:31;1.30;;;1.20;;
52112;SDS011;38109;49.488;31.988;2022-07-23T14:46:57;1.60;;;1.50;;
52112;SDS011;38109;49.488;31.988;2022-07-23T14:49:25;1.27;;;1.23;;
52112;SDS011;38109;49.488;31.988;2022-07-23T14:51:51;1.30;;;1.20;;
52112;SDS011;38109;49.488;31.988;2022-07-23T14:56:55;1.00;;;1.00;;
52112;SDS011;38109;49.488;31.988;2022-07-23T14:59:22;1.23;;;1.13;;
52112;SDS011;38109;49.488;31.988;2022-07-23T15:01:48;4.30;;;1.17;;
52112;SDS011;38109;49.488;31.988;2022-07-23T15:04:14;1.10;;;1.00;;
52112;SDS011;38109;49.488;31.988;2022-07-23T15:06:41;1.00;;;1.00;;
52112;SDS011;38109;49.488;31.988;2022-07-23T15:09:07;1.02;;;1.02;;
52112;SDS011;38109;49.488;31.988;2022-07-23T15:11:32;0.95;;;0.95;;
52112;SDS011;38109;49.488;31.988;2022-07-23T15:14:05;1.42;;;1.10;;
52112;SDS011;38109;49.488;31.988;2022-07-23T15:16:34;1.10;;;1.05;;
52112;SDS011;38109;49.488;31.988;2022-07-23T15:19:03;1.40;;;1.10;;
52112;SDS011;38109;49.488;31.988;2022-07-23T15:21:29;0.93;;;0.90;;
52112;SDS011;38109;49.488;31.988;2022-07-23T15:23:56;1.42;;;1.00;;
52112;SDS011;38109;49.488;31.988;2022-07-23T15:26:28;0.85;;;0.85;;
52112;SDS011;38109;49.488;31.988;2022-07-23T15:28:55;0.97;;;0.87;;
52112;SDS011;38109;49.488;31.988;2022-07-23T15:31:23;1.25;;;1.15;;
52112;SDS011;38109;49.488;31.988;2022-07-23T15:33:49;1.20;;;1.10;;
52112;SDS011;38109;49.488;31.988;2022-07-23T15:36:19;0.98;;;0.98;;
52112;SDS011;38109;49.488;31.988;2022-07-23T15:38:45;1.20;;;1.10;;
52112;SDS011;38109;49.488;31.988;2022-07-23T15:41:11;1.20;;;1.10;;
52112;SDS011;38109;49.488;31.988;2022-07-23T15:43:37;1.20;;;1.10;;
52112;SDS011;38109;49.488;31.988;2022-07-23T15:46:03;1.80;;;1.20;;
52112;SDS011;38109;49.488;31.988;2022-07-23T15:48:30;1.50;;;1.40;;
52112;SDS011;38109;49.488;31.988;2022-07-23T15:50:56;1.20;;;1.10;;
52112;SDS011;38109;49.488;31.988;2022-07-23T15:53:22;1.30;;;1.20;;
52112;SDS011;38109;49.488;31.988;2022-07-23T15:55:48;5.10;;;1.30;;
52112;SDS011;38109;49.488;31.988;2022-07-23T15:58:14;2.75;;;1.25;;
52112;SDS011;38109;49.488;31.988;2022-07-23T16:00:39;2.15;;;1.38;;
52112;SDS011;38109;49.488;31.988;2022-07-23T16:03:05;1.27;;;1.20;;
52112;SDS011;38109;49.488;31.988;2022-07-23T16:05:31;2.92;;;1.30;;
52112;SDS011;38109;49.488;31.988;2022-07-23T16:07:58;1.13;;;1.02;;
52112;SDS011;38109;49.488;31.988;2022-07-23T16:10:25;1.40;;;1.30;;
52112;SDS011;38109;49.488;31.988;2022-07-23T16:12:50;2.75;;;1.40;;
52112;SDS011;38109;49.488;31.988;2022-07-23T16:15:16;2.10;;;1.40;;
52112;SDS011;38109;49.488;31.988;2022-07-23T16:17:42;1.40;;;1.30;;
52112;SDS011;38109;49.488;31.988;2022-07-23T16:20:08;1.30;;;1.20;;
52112;SDS011;38109;49.488;31.988;2022-07-23T16:22:35;2.15;;;1.38;;
52112;SDS011;38109;49.488;31.988;2022-07-23T16:25:02;2.78;;;1.40;;
52112;SDS011;38109;49.488;31.988;2022-07-23T16:27:31;1.50;;;1.40;;
52112;SDS011;38109;49.488;31.988;2022-07-23T16:29:57;2.40;;;1.50;;
52112;SDS011;38109;49.488;31.988;2022-07-23T16:32:23;1.42;;;1.33;;
52112;SDS011;38109;49.488;31.988;2022-07-23T16:34:49;1.63;;;1.52;;
52112;SDS011;38109;49.488;31.988;2022-07-23T16:37:15;1.67;;;1.42;;
52112;SDS011;38109;49.488;31.988;2022-07-23T16:39:40;2.20;;;1.70;;
52112;SDS011;38109;49.488;31.988;2022-07-23T16:42:06;1.63;;;1.40;;
52112;SDS011;38109;49.488;31.988;2022-07-23T16:44:34;3.60;;;1.60;;
52112;SDS011;38109;49.488;31.988;2022-07-23T16:47:01;1.65;;;1.35;;
52112;SDS011;38109;49.488;31.988;2022-07-23T16:49:27;1.70;;;1.60;;
52112;SDS011;38109;49.488;31.988;2022-07-23T16:55:15;1.60;;;1.50;;
52112;SDS011;38109;49.488;31.988;2022-07-23T16:57:41;1.80;;;1.50;;
52112;SDS011;38109;49.488;31.988;2022-07-23T17:00:07;1.95;;;1.50;;
52112;SDS011;38109;49.488;31.988;2022-07-23T17:02:35;1.70;;;1.60;;
52112;SDS011;38109;49.488;31.988;2022-07-23T17:05:02;1.77;;;1.63;;
52112;SDS011;38109;49.488;31.988;2022-07-23T17:07:29;2.80;;;1.95;;
52112;SDS011;38109;49.488;31.988;2022-07-23T17:09:54;2.25;;;1.70;;
52112;SDS011;38109;49.488;31.988;2022-07-23T17:12:20;2.22;;;1.88;;
52112;SDS011;38109;49.488;31.988;2022-07-23T17:14:46;3.67;;;1.80;;
52112;SDS011;38109;49.488;31.988;2022-07-23T17:17:19;1.83;;;1.48;;
52112;SDS011;38109;49.488;31.988;2022-07-23T17:19:45;1.80;;;1.70;;
52112;SDS011;38109;49.488;31.988;2022-07-23T17:22:10;2.17;;;1.88;;
52112;SDS011;38109;49.488;31.988;2022-07-23T17:24:41;2.25;;;2.05;;
52112;SDS011;38109;49.488;31.988;2022-07-23T17:27:34;2.17;;;1.90;;
52112;SDS011;38109;49.488;31.988;2022-07-23T17:30:00;3.65;;;1.90;;
52112;SDS011;38109;49.488;31.988;2022-07-23T17:32:26;2.20;;;2.00;;
52112;SDS011;38109;49.488;31.988;2022-07-23T17:34:58;2.08;;;1.88;;
52112;SDS011;38109;49.488;31.988;2022-07-23T17:40:30;2.45;;;1.50;;
52112;SDS011;38109;49.488;31.988;2022-07-23T17:46:20;3.87;;;1.80;;
52112;SDS011;38109;49.488;31.988;2022-07-23T17:52:09;2.10;;;1.90;;
52112;SDS011;38109;49.488;31.988;2022-07-23T17:54:35;2.03;;;1.88;;
52112;SDS011;38109;49.488;31.988;2022-07-23T17:57:01;4.28;;;2.10;;
52112;SDS011;38109;49.488;31.988;2022-07-23T17:59:27;5.70;;;2.20;;
52112;SDS011;38109;49.488;31.988;2022-07-23T18:01:53;6.55;;;3.47;;
52112;SDS011;38109;49.488;31.988;2022-07-23T18:04:19;4.10;;;2.38;;
52112;SDS011;38109;49.488;31.988;2022-07-23T18:06:45;4.28;;;2.72;;
52112;SDS011;38109;49.488;31.988;2022-07-23T18:09:11;3.00;;;2.47;;
52112;SDS011;38109;49.488;31.988;2022-07-23T18:11:40;5.35;;;2.90;;
52112;SDS011;38109;49.488;31.988;2022-07-23T18:14:06;3.20;;;2.67;;
52112;SDS011;38109;49.488;31.988;2022-07-23T18:16:33;7.18;;;2.95;;
52112;SDS011;38109;49.488;31.988;2022-07-23T18:19:00;6.88;;;3.85;;
52112;SDS011;38109;49.488;31.988;2022-07-23T18:21:27;21.83;;;12.70;;
52112;SDS011;38109;49.488;31.988;2022-07-23T18:23:53;23.85;;;16.30;;
52112;SDS011;38109;49.488;31.988;2022-07-23T18:26:19;17.13;;;12.00;;
52112;SDS011;38109;49.488;31.988;2022-07-23T18:28:45;9.73;;;7.35;;
52112;SDS011;38109;49.488;31.988;2022-07-23T18:31:10;6.00;;;5.10;;
52112;SDS011;38109;49.488;31.988;2022-07-23T18:33:36;4.93;;;4.43;;
52112;SDS011;38109;49.488;31.988;2022-07-23T18:36:02;5.75;;;3.90;;
52112;SDS011;38109;49.488;31.988;2022-07-23T18:38:29;4.25;;;3.17;;
52112;SDS011;38109;49.488;31.988;2022-07-23T18:40:54;5.65;;;3.60;;
52112;SDS011;38109;49.488;31.988;2022-07-23T18:43:20;4.22;;;3.40;;
52112;SDS011;38109;49.488;31.988;2022-07-23T18:45:46;4.20;;;3.10;;
52112;SDS011;38109;49.488;31.988;2022-07-23T18:48:12;4.05;;;3.22;;
52112;SDS011;38109;49.488;31.988;2022-07-23T18:50:40;3.45;;;3.13;;
52112;SDS011;38109;49.488;31.988;2022-07-23T18:53:06;4.30;;;3.08;;
52112;SDS011;38109;49.488;31.988;2022-07-23T18:55:32;4.13;;;3.50;;
52112;SDS011;38109;49.488;31.988;2022-07-23T18:57:58;5.10;;;3.20;;
52112;SDS011;38109;49.488;31.988;2022-07-23T19:00:28;4.63;;;3.03;;
52112;SDS011;38109;49.488;31.988;2022-07-23T19:02:59;3.23;;;2.93;;
52112;SDS011;38109;49.488;31.988;2022-07-23T19:05:25;3.10;;;2.80;;
52112;SDS011;38109;49.488;31.988;2022-07-23T19:07:51;3.25;;;2.95;;
52112;SDS011;38109;49.488;31.988;2022-07-23T19:10:18;3.05;;;2.72;;
52112;SDS011;38109;49.488;31.988;2022-07-23T19:12:45;4.22;;;2.70;;
52112;SDS011;38109;49.488;31.988;2022-07-23T19:15:11;6.28;;;3.05;;
52112;SDS011;38109;49.488;31.988;2022-07-23T19:17:37;4.60;;;2.72;;
52112;SDS011;38109;49.488;31.988;2022-07-23T19:20:07;3.08;;;2.80;;
52112;SDS011;38109;49.488;31.988;2022-07-23T19:22:35;3.75;;;2.83;;
52112;SDS011;38109;49.488;31.988;2022-07-23T19:25:01;3.17;;;2.88;;
52112;SDS011;38109;49.488;31.988;2022-07-23T19:27:28;5.13;;;3.10;;
52112;SDS011;38109;49.488;31.988;2022-07-23T19:29:54;3.65;;;2.70;;
52112;SDS011;38109;49.488;31.988;2022-07-23T19:32:20;5.05;;;2.80;;
52112;SDS011;38109;49.488;31.988;2022-07-23T19:34:45;2.90;;;2.70;;
52112;SDS011;38109;49.488;31.988;2022-07-23T19:37:11;5.53;;;2.80;;
52112;SDS011;38109;49.488;31.988;2022-07-23T19:39:38;3.67;;;2.75;;
52112;SDS011;38109;49.488;31.988;2022-07-23T19:42:05;3.17;;;2.80;;
52112;SDS011;38109;49.488;31.988;2022-07-23T19:44:31;3.28;;;2.97;;
52112;SDS011;38109;49.488;31.988;2022-07-23T19:46:56;4.95;;;2.90;;
52112;SDS011;38109;49.488;31.988;2022-07-23T19:49:22;3.90;;;2.80;;
52112;SDS011;38109;49.488;31.988;2022-07-23T19:51:48;2.90;;;2.70;;
52112;SDS011;38109;49.488;31.988;2022-07-23T19:54:14;4.18;;;3.13;;
52112;SDS011;38109;49.488;31.988;2022-07-23T19:56:39;3.63;;;2.80;;
52112;SDS011;38109;49.488;31.988;2022-07-23T19:59:05;5.07;;;2.95;;
52112;SDS011;38109;49.488;31.988;2022-07-23T20:01:31;6.10;;;3.10;;
52112;SDS011;38109;49.488;31.988;2022-07-23T20:03:57;3.30;;;3.00;;
52112;SDS011;38109;49.488;31.988;2022-07-23T20:06:23;3.35;;;3.00;;
52112;SDS011;38109;49.488;31.988;2022-07-23T20:08:49;5.28;;;3.47;;
52112;SDS011;38109;49.488;31.988;2022-07-23T20:11:15;3.85;;;3.17;;
52112;SDS011;38109;49.488;31.988;2022-07-23T20:13:40;10.77;;;3.58;;
52112;SDS011;38109;49.488;31.988;2022-07-23T20:16:06;3.55;;;3.25;;
52112;SDS011;38109;49.488;31.988;2022-07-23T20:18:32;3.53;;;3.13;;
52112;SDS011;38109;49.488;31.988;2022-07-23T20:20:58;5.75;;;3.47;;
52112;SDS011;38109;49.488;31.988;2022-07-23T20:23:24;3.38;;;3.05;;
52112;SDS011;38109;49.488;31.988;2022-07-23T20:25:51;3.55;;;3.25;;
52112;SDS011;38109;49.488;31.988;2022-07-23T20:28:17;3.95;;;3.30;;
52112;SDS011;38109;49.488;31.988;2022-07-23T20:30:43;3.83;;;3.42;;
52112;SDS011;38109;49.488;31.988;2022-07-23T20:33:12;4.88;;;3.15;;
52112;SDS011;38109;49.488;31.988;2022-07-23T20:35:39;3.30;;;2.92;;
52112;SDS011;38109;49.488;31.988;2022-07-23T20:38:05;3.53;;;3.22;;
52112;SDS011;38109;49.488;31.988;2022-07-23T20:40:31;3.53;;;3.22;;
52112;SDS011;38109;49.488;31.988;2022-07-23T20:42:57;3.70;;;3.40;;
52112;SDS011;38109;49.488;31.988;2022-07-23T20:45:23;3.92;;;3.60;;
52112;SDS011;38109;49.488;31.988;2022-07-23T20:47:48;4.00;;;3.70;;
52112;SDS011;38109;49.488;31.988;2022-07-23T20:50:14;3.60;;;3.30;;
52112;SDS011;38109;49.488;31.988;2022-07-23T20:52:41;4.75;;;3.83;;
52112;SDS011;38109;49.488;31.988;2022-07-23T20:55:07;4.13;;;3.72;;
52112;SDS011;38109;49.488;31.988;2022-07-23T20:57:33;6.00;;;4.00;;
52112;SDS011;38109;49.488;31.988;2022-07-23T20:59:58;3.70;;;3.40;;
52112;SDS011;38109;49.488;31.988;2022-07-23T21:02:24;4.07;;;3.05;;
52112;SDS011;38109;49.488;31.988;2022-07-23T21:04:50;4.68;;;3.20;;
52112;SDS011;38109;49.488;31.988;2022-07-23T21:07:18;3.22;;;2.90;;
52112;SDS011;38109;49.488;31.988;2022-07-23T21:09:44;3.58;;;3.25;;
52112;SDS011;38109;49.488;31.988;2022-07-23T21:12:11;3.78;;;3.47;;
52112;SDS011;38109;49.488;31.988;2022-07-23T21:14:36;3.88;;;3.42;;
52112;SDS011;38109;49.488;31.988;2022-07-23T21:17:02;3.58;;;3.28;;
52112;SDS011;38109;49.488;31.988;2022-07-23T21:19:28;4.25;;;3.85;;
52112;SDS011;38109;49.488;31.988;2022-07-23T21:21:54;5.15;;;3.50;;
52112;SDS011;38109;49.488;31.988;2022-07-23T21:24:20;3.28;;;3.00;;
52112;SDS011;38109;49.488;31.988;2022-07-23T21:26:45;5.43;;;3.10;;
52112;SDS011;38109;49.488;31.988;2022-07-23T21:29:11;4.15;;;3.63;;
52112;SDS011;38109;49.488;31.988;2022-07-23T21:31:37;3.47;;;3.17;;
52112;SDS011;38109;49.488;31.988;2022-07-23T21:34:02;3.80;;;3.50;;
52112;SDS011;38109;49.488;31.988;2022-07-23T21:36:28;3.80;;;3.50;;
52112;SDS011;38109;49.488;31.988;2022-07-23T21:38:54;4.07;;;3.78;;
52112;SDS011;38109;49.488;31.988;2022-07-23T21:41:20;11.68;;;3.53;;
52112;SDS011;38109;49.488;31.988;2022-07-23T21:43:45;4.05;;;3.75;;
52112;SDS011;38109;49.488;31.988;2022-07-23T21:46:11;4.40;;;3.88;;
52112;SDS011;38109;49.488;31.988;2022-07-23T21:48:37;3.95;;;3.58;;
52112;SDS011;38109;49.488;31.988;2022-07-23T21:51:04;4.25;;;3.28;;
52112;SDS011;38109;49.488;31.988;2022-07-23T21:53:30;3.75;;;3.45;;
52112;SDS011;38109;49.488;31.988;2022-07-23T21:55:55;4.25;;;3.65;;
52112;SDS011;38109;49.488;31.988;2022-07-23T21:58:21;3.85;;;3.55;;
52112;SDS011;38109;49.488;31.988;2022-07-23T22:00:47;3.80;;;3.50;;
52112;SDS011;38109;49.488;31.988;2022-07-23T22:03:13;4.03;;;3.65;;
52112;SDS011;38109;49.488;31.988;2022-07-23T22:05:39;4.70;;;3.75;;
52112;SDS011;38109;49.488;31.988;2022-07-23T22:08:05;4.00;;;3.70;;
52112;SDS011;38109;49.488;31.988;2022-07-23T22:10:31;4.30;;;3.90;;
52112;SDS011;38109;49.488;31.988;2022-07-23T22:12:57;4.35;;;3.95;;
52112;SDS011;38109;49.488;31.988;2022-07-23T22:15:23;4.20;;;3.90;;
52112;SDS011;38109;49.488;31.988;2022-07-23T22:17:50;4.20;;;3.80;;
52112;SDS011;38109;49.488;31.988;2022-07-23T22:20:16;4.25;;;3.70;;
52112;SDS011;38109;49.488;31.988;2022-07-23T22:22:46;4.55;;;4.10;;
52112;SDS011;38109;49.488;31.988;2022-07-23T22:25:13;4.68;;;4.00;;
52112;SDS011;38109;49.488;31.988;2022-07-23T22:27:39;4.18;;;3.88;;
52112;SDS011;38109;49.488;31.988;2022-07-23T22:30:06;4.63;;;3.80;;
52112;SDS011;38109;49.488;31.988;2022-07-23T22:32:33;4.22;;;3.90;;
52112;SDS011;38109;49.488;31.988;2022-07-23T22:34:59;4.30;;;3.90;;
52112;SDS011;38109;49.488;31.988;2022-07-23T22:37:24;4.60;;;4.20;;
52112;SDS011;38109;49.488;31.988;2022-07-23T22:39:50;5.53;;;3.95;;
52112;SDS011;38109;49.488;31.988;2022-07-23T22:42:15;4.45;;;4.05;;
52112;SDS011;38109;49.488;31.988;2022-07-23T22:44:41;4.75;;;4.20;;
52112;SDS011;38109;49.488;31.988;2022-07-23T22:47:07;5.38;;;3.65;;
52112;SDS011;38109;49.488;31.988;2022-07-23T22:49:35;3.85;;;3.55;;
52112;SDS011;38109;49.488;31.988;2022-07-23T22:52:03;5.25;;;3.78;;
52112;SDS011;38109;49.488;31.988;2022-07-23T22:54:31;6.25;;;3.80;;
52112;SDS011;38109;49.488;31.988;2022-07-23T22:56:57;4.10;;;3.70;;
52112;SDS011;38109;49.488;31.988;2022-07-23T22:59:23;4.55;;;4.15;;
52112;SDS011;38109;49.488;31.988;2022-07-23T23:01:49;4.90;;;4.40;;
52112;SDS011;38109;49.488;31.988;2022-07-23T23:04:15;4.72;;;4.32;;
52112;SDS011;38109;49.488;31.988;2022-07-23T23:06:40;5.15;;;4.30;;
52112;SDS011;38109;49.488;31.988;2022-07-23T23:09:06;4.38;;;3.97;;
52112;SDS011;38109;49.488;31.988;2022-07-23T23:11:32;5.20;;;4.18;;
52112;SDS011;38109;49.488;31.988;2022-07-23T23:13:57;4.57;;;4.18;;
52112;SDS011;38109;49.488;31.988;2022-07-23T23:16:23;7.13;;;4.50;;
52112;SDS011;38109;49.488;31.988;2022-07-23T23:18:49;4.57;;;3.85;;
52112;SDS011;38109;49.488;31.988;2022-07-23T23:21:14;5.07;;;4.57;;
52112;SDS011;38109;49.488;31.988;2022-07-23T23:23:40;4.40;;;4.00;;
52112;SDS011;38109;49.488;31.988;2022-07-23T23:26:06;4.85;;;4.10;;
52112;SDS011;38109;49.488;31.988;2022-07-23T23:28:32;8.30;;;4.03;;
52112;SDS011;38109;49.488;31.988;2022-07-23T23:30:57;5.22;;;4.75;;
52112;SDS011;38109;49.488;31.988;2022-07-23T23:33:23;4.93;;;4.43;;
52112;SDS011;38109;49.488;31.988;2022-07-23T23:35:49;4.90;;;4.50;;
52112;SDS011;38109;49.488;31.988;2022-07-23T23:38:14;5.72;;;4.97;;
52112;SDS011;38109;49.488;31.988;2022-07-23T23:40:40;4.70;;;4.30;;
52112;SDS011;38109;49.488;31.988;2022-07-23T23:43:05;4.90;;;4.50;;
52112;SDS011;38109;49.488;31.988;2022-07-23T23:45:31;4.95;;;4.55;;
52112;SDS011;38109;49.488;31.988;2022-07-23T23:47:57;4.80;;;4.40;;
52112;SDS011;38109;49.488;31.988;2022-07-23T23:50:23;5.07;;;4.53;;
52112;SDS011;38109;49.488;31.988;2022-07-23T23:52:48;5.65;;;4.78;;
52112;SDS011;38109;49.488;31.988;2022-07-23T23:55:14;5.95;;;4.60;;
52112;SDS011;38109;49.488;31.988;2022-07-23T23:57:40;5.47;;;4.97;;
